Edith Maersk — OXOR2 — position and weather

sailwx.info

Track history (hours):
 
Tides and Currents Weather Stations Pressure Air Temp Water Temp Dewpoint Dewpoint Depression Visibility Wind Speed Wind Dir Waves Ship Positions

Edith Maersk

Last reported at 2018-Apr-21 04:59 UTC. Time now 2018-Apr-26 00:20 UTC.
Position N 19°05' E 058°40'.

Length 399 m; draft 14.6 m.

Type: Ship (hazmat cat A). MMSI: 220501000.

Date/timePositionNaut miles runAvg speedWind from/ knotsBaromVisibWave heightAir tempDewpointWater temp
2018-Apr-21 04:59N 19°05' E 058°40'715.1
2018-Apr-21 04:30N 18°59' E 058°36'815.2
2018-Apr-21 04:00N 18°52' E 058°32'815.2
2018-Apr-21 03:30N 18°45' E 058°28'815.8
2018-Apr-21 02:59N 18°38' E 058°24'4016.0
2018-Apr-21 00:27N 18°07' E 057°57'816.0
2018-Apr-20 23:58N 18°01' E 057°52'  
2018-Apr-15 02:12N 31°28' E 032°21'1 5.9
2018-Apr-15 02:00N 31°28' E 032°20'0 0.5
2018-Apr-15 01:29N 31°28' E 032°20'0 0.0
2018-Apr-14 23:11N 31°28' E 032°20'0 0.0
2018-Apr-14 22:59N 31°28' E 032°20'0 0.1
2018-Apr-14 22:23N 31°28' E 032°20'0 0.1
2018-Apr-14 21:59N 31°28' E 032°20'0 0.1
2018-Apr-14 21:30N 31°28' E 032°20'2 3.6
2018-Apr-14 21:00N 31°28' E 032°18'4 7.7
2018-Apr-14 20:30N 31°30' E 032°14'612.4
2018-Apr-14 20:00N 31°35' E 032°09'816.4
2018-Apr-14 19:30N 31°40' E 032°02'916.9
2018-Apr-14 18:59N 31°46' E 031°54'1117.8
2018-Apr-14 18:22N 31°49' E 031°41'818.0
2018-Apr-14 17:55N 31°51' E 031°32'817.9
2018-Apr-14 17:26N 31°54' E 031°23'1717.8
2018-Apr-14 16:28N 31°59' E 031°03'7619.0
2018-Apr-14 12:28N 32°23' E 029°38'67018.4
2018-Apr-13 00:02N 35°52' E 016°49'114.8
2018-Apr-12 23:59N 35°52' E 016°48'1018.0
2018-Apr-12 23:26N 35°55' E 016°37'1218.6
2018-Apr-12 22:47N 35°59' E 016°22'3118.0
2018-Apr-12 21:05N 36°08' E 015°46'218.3
2018-Apr-12 21:00N 36°08' E 015°44'1819.1
2018-Apr-12 20:04N 36°14' E 015°24'214.4
2018-Apr-12 19:55N 36°15' E 015°21'920.0
2018-Apr-12 19:27N 36°17' E 015°10'818.5
2018-Apr-12 19:00N 36°20' E 015°00'1119.6
2018-Apr-12 18:27N 36°23' E 014°48'918.6
2018-Apr-12 18:00N 36°26' E 014°38'1020.5
2018-Apr-12 17:29N 36°29' E 014°25'817.3
2018-Apr-12 17:00N 36°32' E 014°15'918.9
2018-Apr-12 16:30N 36°35' E 014°04'918.9
2018-Apr-12 16:00N 36°38' E 013°53'918.6
2018-Apr-12 15:30N 36°41' E 013°42'918.4
2018-Apr-12 15:00N 36°44' E 013°31'918.5
2018-Apr-12 14:30N 36°46' E 013°20'  
Track history (hours):
 
Tides and Currents Weather Stations Pressure Air Temp Water Temp Dewpoint Dewpoint Depression Visibility Wind Speed Wind Dir Waves Ship Positions

Edith Maersk

Last reported at 2018-Apr-21 04:59 UTC. Time now 2018-Apr-26 00:20 UTC.
Position N 19°05' E 058°40'.

Length 399 m; draft 14.6 m.

Type: Ship (hazmat cat A). MMSI: 220501000.

Date/timePositionNaut miles runAvg speedWind from/ knotsBaromVisibWave heightAir tempDewpointWater temp
2018-Apr-21 04:59N 19°05' E 058°40'715.1
2018-Apr-21 04:30N 18°59' E 058°36'815.2
2018-Apr-21 04:00N 18°52' E 058°32'815.2
2018-Apr-21 03:30N 18°45' E 058°28'815.8
2018-Apr-21 02:59N 18°38' E 058°24'4016.0
2018-Apr-21 00:27N 18°07' E 057°57'816.0
2018-Apr-20 23:58N 18°01' E 057°52'  
2018-Apr-15 02:12N 31°28' E 032°21'1 5.9
2018-Apr-15 02:00N 31°28' E 032°20'0 0.5
2018-Apr-15 01:29N 31°28' E 032°20'0 0.0
2018-Apr-14 23:11N 31°28' E 032°20'0 0.0
2018-Apr-14 22:59N 31°28' E 032°20'0 0.1
2018-Apr-14 22:23N 31°28' E 032°20'0 0.1
2018-Apr-14 21:59N 31°28' E 032°20'0 0.1
2018-Apr-14 21:30N 31°28' E 032°20'2 3.6
2018-Apr-14 21:00N 31°28' E 032°18'4 7.7
2018-Apr-14 20:30N 31°30' E 032°14'612.4
2018-Apr-14 20:00N 31°35' E 032°09'816.4
2018-Apr-14 19:30N 31°40' E 032°02'916.9
2018-Apr-14 18:59N 31°46' E 031°54'1117.8
2018-Apr-14 18:22N 31°49' E 031°41'818.0
2018-Apr-14 17:55N 31°51' E 031°32'817.9
2018-Apr-14 17:26N 31°54' E 031°23'1717.8
2018-Apr-14 16:28N 31°59' E 031°03'7619.0
2018-Apr-14 12:28N 32°23' E 029°38'67018.4
2018-Apr-13 00:02N 35°52' E 016°49'114.8
2018-Apr-12 23:59N 35°52' E 016°48'1018.0
2018-Apr-12 23:26N 35°55' E 016°37'1218.6
2018-Apr-12 22:47N 35°59' E 016°22'3118.0
2018-Apr-12 21:05N 36°08' E 015°46'218.3
2018-Apr-12 21:00N 36°08' E 015°44'1819.1
2018-Apr-12 20:04N 36°14' E 015°24'214.4
2018-Apr-12 19:55N 36°15' E 015°21'920.0
2018-Apr-12 19:27N 36°17' E 015°10'818.5
2018-Apr-12 19:00N 36°20' E 015°00'1119.6
2018-Apr-12 18:27N 36°23' E 014°48'918.6
2018-Apr-12 18:00N 36°26' E 014°38'1020.5
2018-Apr-12 17:29N 36°29' E 014°25'817.3
2018-Apr-12 17:00N 36°32' E 014°15'918.9
2018-Apr-12 16:30N 36°35' E 014°04'918.9
2018-Apr-12 16:00N 36°38' E 013°53'918.6
2018-Apr-12 15:30N 36°41' E 013°42'918.4
2018-Apr-12 15:00N 36°44' E 013°31'918.5
2018-Apr-12 14:30N 36°46' E 013°20'  

Dump ship's entire track history